Terminal Aerodrome Forecast
Issued by NWS

Home | Current Version | Previous Version | Text Only | Print | Product List | Glossary On
Versions: 1 2 3 4 5 6 7 8 9 10 11 12 13 14 15 16 17 18 19 20 21 22 23 24 25 26
000
FTUS43 KLSX 200600 AAA
TAFSUS
TAF AMD
KSUS 200606Z 2006/2106 VRB03KT 6SM BR OVC030
     FM200800 00000KT 4SM BR BKN020 OVC040
     FM201100 00000KT 2SM BR SCT006 OVC015
     FM201700 17005KT 5SM HZ BKN020 OVC050=

USA.gov is the U.S. government's official web portal to all federal, state and local government web resources and services.